createdAt,value
2018-12-11T00:00:44.674Z,101813.37
2018-12-11T00:03:14.138Z,101810.31
2018-12-11T00:05:43.873Z,101806.36
2018-12-11T00:08:19.961Z,101814.20
2018-12-11T00:10:49.665Z,101820.36
2018-12-11T00:13:30.701Z,101812.94
2018-12-11T00:16:00.769Z,101813.37
2018-12-11T00:18:30.661Z,101805.15
2018-12-11T00:21:01.084Z,101805.17
2018-12-11T00:23:45.673Z,101803.45
2018-12-11T00:26:27.566Z,101800.88
2018-12-11T00:28:59.596Z,101803.05
2018-12-11T00:31:28.906Z,101802.60
2018-12-11T00:33:59.520Z,101802.14
2018-12-11T00:36:29.867Z,101800.34
2018-12-11T00:39:00.860Z,101802.19
2018-12-11T00:41:31.072Z,101802.67
2018-12-11T00:44:01.953Z,101800.45
2018-12-11T00:46:31.353Z,101797.01
2018-12-11T00:49:01.360Z,101803.55
2018-12-11T00:51:30.852Z,101799.64
2018-12-11T00:54:01.084Z,101795.20
2018-12-11T00:56:31.022Z,101800.00
2018-12-11T00:59:02.041Z,101797.41
2018-12-11T01:01:31.547Z,101793.55
2018-12-11T01:04:01.365Z,101803.06
2018-12-11T01:06:30.863Z,101803.44
2018-12-11T01:09:06.196Z,101808.26
2018-12-11T01:11:35.715Z,101808.22
2018-12-11T01:14:06.653Z,101800.86
2018-12-11T01:16:36.016Z,101798.23
2018-12-11T01:19:07.253Z,101796.05
2018-12-11T01:21:37.855Z,101806.50
2018-12-11T01:24:07.499Z,101805.59
2018-12-11T01:26:37.004Z,101796.39
2018-12-11T01:29:06.339Z,101805.16
2018-12-11T01:31:35.996Z,101809.05
2018-12-11T01:34:06.573Z,101798.19
2018-12-11T01:36:36.192Z,101805.59
2018-12-11T01:39:09.508Z,101800.34
2018-12-11T01:41:39.407Z,101805.58
2018-12-11T01:44:08.947Z,101811.27
2018-12-11T01:46:38.481Z,101804.23
2018-12-11T01:49:08.535Z,101809.06
2018-12-11T01:51:38.430Z,101813.85
2018-12-11T01:54:08.175Z,101811.16
2018-12-11T01:56:37.506Z,101815.99
2018-12-11T01:59:06.944Z,101813.42
2018-12-11T02:01:36.427Z,101808.15
2018-12-11T02:04:05.876Z,101812.56
2018-12-11T02:06:35.159Z,101808.64
2018-12-11T02:09:06.972Z,101803.84
2018-12-11T02:11:37.160Z,101809.03
2018-12-11T02:14:06.511Z,101799.09
2018-12-11T02:16:35.802Z,101810.51
2018-12-11T02:19:05.249Z,101811.78
2018-12-11T02:21:34.729Z,101810.91
2018-12-11T02:24:04.631Z,101806.61
2018-12-11T02:26:34.165Z,101801.81
2018-12-11T02:29:05.123Z,101803.09
2018-12-11T02:31:34.507Z,101804.36
2018-12-11T02:34:05.266Z,101797.86
2018-12-11T02:36:43.957Z,101805.31
2018-12-11T02:39:30.655Z,101798.77
2018-12-11T02:42:03.119Z,101798.74
2018-12-11T02:44:32.412Z,101800.05
2018-12-11T02:47:02.918Z,101799.19
2018-12-11T02:49:32.603Z,101798.74
2018-12-11T02:52:01.969Z,101796.17
2018-12-11T02:54:31.353Z,101796.17
2018-12-11T02:57:00.757Z,101802.66
2018-12-11T02:59:30.218Z,101796.58
2018-12-11T03:02:00.008Z,101801.78
2018-12-11T03:04:29.989Z,101794.41
2018-12-11T03:06:59.320Z,101798.71
2018-12-11T03:09:28.764Z,101802.69
2018-12-11T03:11:59.084Z,101805.26
2018-12-11T03:14:28.671Z,101802.19
2018-12-11T03:16:58.118Z,101802.70
2018-12-11T03:19:27.495Z,101805.30
2018-12-11T03:21:56.925Z,101800.09
2018-12-11T03:24:27.974Z,101795.70
2018-12-11T03:26:57.307Z,101787.87
2018-12-11T03:29:27.355Z,101782.61
2018-12-11T03:31:56.724Z,101777.41
2018-12-11T03:34:27.494Z,101782.20
2018-12-11T03:36:58.634Z,101778.77
2018-12-11T03:39:29.706Z,101780.55
2018-12-11T03:42:00.480Z,101774.00
2018-12-11T03:44:30.664Z,101777.91
2018-12-11T03:46:59.980Z,101772.68
2018-12-11T03:49:29.305Z,101769.23
2018-12-11T03:51:58.537Z,101775.78
2018-12-11T03:54:28.074Z,101773.66
2018-12-11T03:56:57.955Z,101776.69
2018-12-11T03:59:28.174Z,101781.50
2018-12-11T04:01:57.617Z,101789.35
2018-12-11T04:04:27.349Z,101788.50
2018-12-11T04:06:57.365Z,101795.91
2018-12-11T04:09:27.586Z,101789.41
2018-12-11T04:11:57.271Z,101790.30
2018-12-11T04:14:27.171Z,101786.37
2018-12-11T04:16:57.534Z,101790.27
2018-12-11T04:19:26.892Z,101794.20
2018-12-11T04:21:56.188Z,101795.47
2018-12-11T04:24:27.639Z,101798.50
2018-12-11T04:26:57.099Z,101798.95
2018-12-11T04:29:28.018Z,101793.72
2018-12-11T04:31:57.534Z,101786.28
2018-12-11T04:34:26.891Z,101784.92
2018-12-11T04:36:56.948Z,101782.81
2018-12-11T04:39:26.244Z,101791.52
2018-12-11T04:41:55.592Z,101787.16
2018-12-11T04:44:24.924Z,101795.44
2018-12-11T04:46:54.362Z,101792.86
2018-12-11T04:49:23.659Z,101789.34
2018-12-11T04:51:52.998Z,101788.92
2018-12-11T04:54:22.508Z,101798.95
2018-12-11T04:56:51.939Z,101791.97
2018-12-11T04:59:21.415Z,101792.39
2018-12-11T05:01:50.945Z,101793.75
2018-12-11T05:04:20.249Z,101797.66
2018-12-11T05:06:49.602Z,101802.02
2018-12-11T05:09:20.521Z,101792.47
2018-12-11T05:11:50.026Z,101793.77
2018-12-11T05:14:19.631Z,101792.00
2018-12-11T05:16:49.616Z,101794.56
2018-12-11T05:19:19.258Z,101794.97
2018-12-11T05:21:49.140Z,101795.39
2018-12-11T05:24:19.678Z,101794.53
2018-12-11T05:26:49.868Z,101793.19
2018-12-11T05:29:19.271Z,101791.02
2018-12-11T05:31:49.180Z,101795.81
2018-12-11T05:34:18.735Z,101791.43
2018-12-11T05:36:48.934Z,101788.80
2018-12-11T05:39:20.133Z,101792.73
2018-12-11T05:41:49.502Z,101786.63
2018-12-11T05:44:18.825Z,101788.38
2018-12-11T05:46:48.387Z,101784.92
2018-12-11T05:49:17.819Z,101782.25
2018-12-11T05:51:47.253Z,101787.42
2018-12-11T05:54:17.164Z,101803.48
2018-12-11T05:56:47.128Z,101789.10
2018-12-11T05:59:16.794Z,101787.39
2018-12-11T06:01:46.688Z,101782.63
2018-12-11T06:04:17.182Z,101797.45
2018-12-11T06:06:46.585Z,101804.46
2018-12-11T06:09:16.087Z,101797.52
2018-12-11T06:11:46.589Z,101799.70
2018-12-11T06:14:18.059Z,101808.44
2018-12-11T06:16:47.549Z,101806.25
2018-12-11T06:19:17.525Z,101803.66
2018-12-11T06:21:47.116Z,101806.67
2018-12-11T06:24:16.920Z,101793.12
2018-12-11T06:26:46.630Z,101797.94
2018-12-11T06:29:17.325Z,101794.44
2018-12-11T06:31:46.725Z,101793.96
2018-12-11T06:34:17.870Z,101785.69
2018-12-11T06:36:47.993Z,101797.41
2018-12-11T06:39:19.144Z,101802.27
2018-12-11T06:41:48.560Z,101800.94
2018-12-11T06:44:20.906Z,101790.93
2018-12-11T06:46:51.957Z,101797.91
2018-12-11T06:49:22.703Z,101792.22
2018-12-11T06:51:52.910Z,101789.64
2018-12-11T06:54:23.632Z,101789.20
2018-12-11T06:56:54.719Z,101797.47
2018-12-11T06:59:24.393Z,101796.59
2018-12-11T07:01:54.012Z,101797.00
2018-12-11T07:04:23.979Z,101789.20
2018-12-11T07:06:53.740Z,101789.17
2018-12-11T07:09:23.244Z,101794.83
2018-12-11T07:11:53.573Z,101800.08
2018-12-11T07:14:23.405Z,101797.91
2018-12-11T07:16:52.812Z,101797.92
2018-12-11T07:19:25.024Z,101786.58
2018-12-11T07:21:54.299Z,101790.11
2018-12-11T07:24:25.474Z,101789.23
2018-12-11T07:26:54.851Z,101790.58
2018-12-11T07:29:24.552Z,101793.23
2018-12-11T07:31:53.926Z,101792.77
2018-12-11T07:34:24.800Z,101791.95
2018-12-11T07:36:55.379Z,101800.61
2018-12-11T07:39:25.054Z,101804.15
2018-12-11T07:41:55.392Z,101807.64
2018-12-11T07:44:24.567Z,101807.65
2018-12-11T07:46:54.687Z,101804.20
2018-12-11T07:49:24.100Z,101798.52
2018-12-11T07:51:53.656Z,101797.70
2018-12-11T07:54:23.173Z,101800.31
2018-12-11T07:56:53.369Z,101805.93
2018-12-11T07:59:23.288Z,101808.14
2018-12-11T08:01:58.198Z,101801.14
2018-12-11T08:04:28.933Z,101803.77
2018-12-11T08:06:59.061Z,101807.71
2018-12-11T08:09:28.804Z,101814.23
2018-12-11T08:11:58.027Z,101806.41
2018-12-11T08:14:28.834Z,101815.97
2018-12-11T08:16:58.395Z,101813.80
2018-12-11T08:19:27.846Z,101814.23
2018-12-11T08:21:58.071Z,101819.04
2018-12-11T08:24:27.647Z,101822.48
2018-12-11T08:26:57.081Z,101813.78
2018-12-11T08:29:26.439Z,101816.39
2018-12-11T08:31:55.961Z,101816.37
2018-12-11T08:34:31.482Z,101817.23
2018-12-11T08:37:01.399Z,101811.13
2018-12-11T08:39:30.760Z,101808.09
2018-12-11T08:42:00.768Z,101815.47
2018-12-11T08:44:30.106Z,101814.55
2018-12-11T08:46:59.548Z,101813.66
2018-12-11T08:49:30.916Z,101816.23
2018-12-11T08:52:01.421Z,101825.38
2018-12-11T08:54:30.931Z,101823.61
2018-12-11T08:57:00.312Z,101823.59
2018-12-11T08:59:29.478Z,101818.34
2018-12-11T09:01:58.677Z,101821.77
2018-12-11T09:04:28.022Z,101823.07
2018-12-11T09:06:57.264Z,101822.20
2018-12-11T09:09:26.735Z,101828.26
2018-12-11T09:11:56.389Z,101831.77
2018-12-11T09:14:25.742Z,101830.43
2018-12-11T09:16:55.241Z,101838.72
2018-12-11T09:19:24.437Z,101843.53
2018-12-11T09:21:53.748Z,101842.69
2018-12-11T09:24:24.813Z,101847.91
2018-12-11T09:26:54.185Z,101846.21
2018-12-11T09:29:24.301Z,101847.91
2018-12-11T09:31:53.710Z,101855.30
2018-12-11T09:34:23.168Z,101850.94
2018-12-11T09:36:55.009Z,101852.25
2018-12-11T09:39:24.521Z,101842.69
2018-12-11T09:41:53.920Z,101853.59
2018-12-11T09:44:23.379Z,101853.99
2018-12-11T09:46:52.889Z,101864.39
2018-12-11T09:49:22.771Z,101855.70
2018-12-11T09:51:52.203Z,101863.11
2018-12-11T09:54:21.709Z,101871.39
2018-12-11T09:56:51.275Z,101870.44
2018-12-11T09:59:23.498Z,101861.78
2018-12-11T10:01:52.905Z,101866.52
2018-12-11T10:04:22.326Z,101866.49
2018-12-11T10:06:51.595Z,101862.98
2018-12-11T10:09:21.475Z,101866.45
2018-12-11T10:11:50.979Z,101862.39
2018-12-11T10:14:20.439Z,101855.79
2018-12-11T10:16:50.123Z,101861.45
2018-12-11T10:19:19.635Z,101860.11
2018-12-11T10:21:49.136Z,101856.58
2018-12-11T10:24:21.851Z,101860.89
2018-12-11T10:26:51.567Z,101863.99
2018-12-11T10:29:21.435Z,101863.55
2018-12-11T10:31:50.980Z,101860.42
2018-12-11T10:34:20.255Z,101863.91
2018-12-11T10:36:49.821Z,101860.87
2018-12-11T10:39:19.779Z,101869.62
2018-12-11T10:41:49.207Z,101863.09
2018-12-11T10:44:18.755Z,101857.78
2018-12-11T10:46:48.713Z,101857.75
2018-12-11T10:49:21.679Z,101852.97
2018-12-11T10:51:56.201Z,101852.93
2018-12-11T10:54:27.063Z,101851.17
2018-12-11T10:56:57.612Z,101856.81
2018-12-11T10:59:27.634Z,101855.33
2018-12-11T11:01:59.043Z,101854.36
2018-12-11T11:04:28.728Z,101852.46
2018-12-11T11:06:57.979Z,101849.34
2018-12-11T11:09:27.662Z,101843.63
2018-12-11T11:11:57.928Z,101851.19
2018-12-11T11:14:27.233Z,101846.80
2018-12-11T11:16:56.666Z,101838.05
2018-12-11T11:19:26.920Z,101838.05
2018-12-11T11:21:56.603Z,101844.51
2018-12-11T11:24:26.529Z,101845.31
2018-12-11T11:26:56.174Z,101839.17
2018-12-11T11:29:28.296Z,101840.11
2018-12-11T11:31:58.590Z,101841.38
2018-12-11T11:34:28.031Z,101836.17
2018-12-11T11:36:58.656Z,101837.09
2018-12-11T11:39:30.093Z,101826.55
2018-12-11T11:42:00.961Z,101829.42
2018-12-11T11:44:33.009Z,101823.73
2018-12-11T11:47:02.622Z,101819.20
2018-12-11T11:49:32.846Z,101817.64
2018-12-11T11:52:03.161Z,101819.17
2018-12-11T11:54:33.034Z,101817.33
2018-12-11T11:57:02.529Z,101816.06
2018-12-11T11:59:33.122Z,101831.13
2018-12-11T12:02:04.349Z,101826.30
2018-12-11T12:04:34.891Z,101823.84
2018-12-11T12:07:05.827Z,101833.92
2018-12-11T12:09:36.780Z,101833.75
2018-12-11T12:12:08.352Z,101834.62
2018-12-11T12:14:37.819Z,101834.58
2018-12-11T12:17:07.444Z,101834.80
2018-12-11T12:19:37.775Z,101834.23
2018-12-11T12:22:07.887Z,101834.43
2018-12-11T12:24:41.315Z,101831.47
2018-12-11T12:27:11.355Z,101820.66
2018-12-11T12:29:42.910Z,101832.38
2018-12-11T12:32:12.228Z,101820.98
2018-12-11T12:34:42.264Z,101825.21
2018-12-11T12:37:12.915Z,101832.47
2018-12-11T12:39:43.214Z,101824.46
2018-12-11T12:42:12.811Z,101824.27
2018-12-11T12:44:42.651Z,101830.81
2018-12-11T12:47:12.026Z,101819.48
2018-12-11T12:49:41.267Z,101817.69
2018-12-11T12:52:11.092Z,101820.19
2018-12-11T12:54:40.754Z,101818.30
2018-12-11T12:57:10.097Z,101816.50
2018-12-11T12:59:41.040Z,101818.27
2018-12-11T13:02:10.604Z,101815.29
2018-12-11T13:04:40.666Z,101815.80
2018-12-11T13:07:10.023Z,101817.23
2018-12-11T13:09:39.320Z,101819.44
2018-12-11T13:12:08.692Z,101817.39
2018-12-11T13:14:38.599Z,101819.05
2018-12-11T13:17:08.388Z,101813.90
2018-12-11T13:19:37.798Z,101808.28
2018-12-11T13:22:07.239Z,101811.41
2018-12-11T13:24:36.578Z,101810.95
2018-12-11T13:27:05.905Z,101811.25
2018-12-11T13:29:35.287Z,101811.56
2018-12-11T13:32:05.786Z,101808.97
2018-12-11T13:34:35.027Z,101808.55
2018-12-11T13:37:04.711Z,101811.11
2018-12-11T13:39:34.385Z,101811.11
2018-12-11T13:43:07.416Z,101807.67
2018-12-11T13:45:36.639Z,101805.61
2018-12-11T13:48:06.833Z,101797.33
2018-12-11T13:50:38.013Z,101793.08
2018-12-11T13:53:07.880Z,101797.81
2018-12-11T13:55:37.400Z,101796.13
2018-12-11T13:58:07.191Z,101798.18
2018-12-11T14:00:36.494Z,101794.31
2018-12-11T14:03:06.288Z,101796.42
2018-12-11T14:05:36.483Z,101792.41
2018-12-11T14:08:06.906Z,101797.23
2018-12-11T14:10:36.747Z,101799.34
2018-12-11T14:13:10.417Z,101802.48
2018-12-11T14:15:40.468Z,101797.70
2018-12-11T14:18:09.734Z,101795.14
2018-12-11T14:20:39.786Z,101797.30
2018-12-11T14:23:09.323Z,101795.16
2018-12-11T14:25:40.099Z,101789.91
2018-12-11T14:28:10.343Z,101791.57
2018-12-11T14:30:39.625Z,101802.11
2018-12-11T14:33:15.504Z,101802.58
2018-12-11T14:35:44.814Z,101800.34
2018-12-11T14:38:14.228Z,101797.70
2018-12-11T14:40:43.993Z,101801.22
2018-12-11T14:43:13.850Z,101799.83
2018-12-11T14:45:43.119Z,101794.17
2018-12-11T14:48:12.409Z,101800.34
2018-12-11T14:50:42.512Z,101797.33
2018-12-11T14:53:12.060Z,101794.70
2018-12-11T14:55:41.369Z,101796.20
2018-12-11T14:58:11.572Z,101793.18
2018-12-11T15:00:41.871Z,101799.73
2018-12-11T15:03:12.006Z,101801.16
2018-12-11T15:05:41.412Z,101806.06
2018-12-11T15:08:11.329Z,101803.96
2018-12-11T15:10:42.092Z,101807.50
2018-12-11T15:13:11.722Z,101807.46
2018-12-11T15:15:41.292Z,101802.26
2018-12-11T15:18:10.580Z,101807.83
2018-12-11T15:20:41.007Z,101806.50
2018-12-11T15:23:10.338Z,101800.75
2018-12-11T15:25:40.431Z,101803.89
2018-12-11T15:28:10.246Z,101805.70
2018-12-11T15:30:39.991Z,101805.75
2018-12-11T15:33:10.516Z,101807.95
2018-12-11T15:35:40.677Z,101812.78
2018-12-11T15:38:10.089Z,101804.38
2018-12-11T15:40:43.570Z,101810.06
2018-12-11T15:43:14.882Z,101813.55
2018-12-11T15:45:45.096Z,101808.28
2018-12-11T15:48:14.586Z,101813.20
2018-12-11T15:50:44.031Z,101813.51
2018-12-11T15:53:14.319Z,101807.55
2018-12-11T15:55:43.643Z,101804.56
2018-12-11T15:58:15.186Z,101798.95
2018-12-11T16:00:45.417Z,101807.67
2018-12-11T16:03:14.829Z,101811.14
2018-12-11T16:05:44.321Z,101811.16
2018-12-11T16:08:13.675Z,101814.72
2018-12-11T16:10:43.808Z,101807.18
2018-12-11T16:13:13.151Z,101809.70
2018-12-11T16:15:42.407Z,101817.13
2018-12-11T16:18:11.636Z,101815.86
2018-12-11T16:20:40.999Z,101817.55
2018-12-11T16:23:11.074Z,101809.68
2018-12-11T16:25:41.339Z,101815.40
2018-12-11T16:28:11.411Z,101815.01
2018-12-11T16:30:41.861Z,101818.14
2018-12-11T16:33:12.078Z,101821.19
2018-12-11T16:35:42.273Z,101821.70
2018-12-11T16:38:11.643Z,101821.76
2018-12-11T16:40:44.308Z,101821.76
2018-12-11T16:43:13.612Z,101822.21
2018-12-11T16:45:44.248Z,101833.07
2018-12-11T16:48:13.713Z,101830.02
2018-12-11T16:50:43.392Z,101824.67
2018-12-11T16:53:12.653Z,101831.78
2018-12-11T16:55:42.000Z,101827.47
2018-12-11T16:58:13.019Z,101834.05
2018-12-11T17:00:42.657Z,101837.95
2018-12-11T17:03:12.803Z,101831.02
2018-12-11T17:05:42.199Z,101835.70
2018-12-11T17:08:11.629Z,101832.79
2018-12-11T17:10:41.044Z,101835.88
2018-12-11T17:13:10.319Z,101835.50
2018-12-11T17:15:39.836Z,101841.14
2018-12-11T17:18:09.034Z,101835.92
2018-12-11T17:20:38.907Z,101838.53
2018-12-11T17:23:08.405Z,101836.84
2018-12-11T17:25:37.786Z,101845.07
2018-12-11T17:28:07.098Z,101841.55
2018-12-11T17:30:36.317Z,101839.84
2018-12-11T17:33:05.916Z,101834.61
2018-12-11T17:35:35.229Z,101841.08
2018-12-11T17:38:04.641Z,101846.77
2018-12-11T17:40:34.035Z,101848.08
2018-12-11T17:43:03.478Z,101856.84
2018-12-11T17:45:32.723Z,101851.64
2018-12-11T17:48:02.890Z,101859.53
2018-12-11T17:50:32.123Z,101856.48
2018-12-11T17:53:01.588Z,101856.00
2018-12-11T17:55:30.986Z,101853.40
2018-12-11T17:58:00.465Z,101853.81
2018-12-11T18:00:30.095Z,101858.59
2018-12-11T18:02:59.647Z,101862.12
2018-12-11T18:05:29.142Z,101861.58
2018-12-11T18:07:58.410Z,101859.09
2018-12-11T18:10:30.545Z,101858.64
2018-12-11T18:12:59.865Z,101858.64
2018-12-11T18:15:29.301Z,101870.37
2018-12-11T18:17:58.750Z,101867.36
2018-12-11T18:20:27.978Z,101863.83
2018-12-11T18:22:57.357Z,101869.59
2018-12-11T18:25:26.651Z,101870.46
2018-12-11T18:27:55.858Z,101872.25
2018-12-11T18:30:25.260Z,101876.17
2018-12-11T18:32:55.607Z,101874.86
2018-12-11T18:35:25.734Z,101880.55
2018-12-11T18:37:54.932Z,101885.34
2018-12-11T18:40:24.234Z,101888.85
2018-12-11T18:42:53.709Z,101877.06
2018-12-11T18:45:24.362Z,101879.23
2018-12-11T18:47:53.831Z,101879.22
2018-12-11T18:50:23.335Z,101881.86
2018-12-11T18:52:52.534Z,101877.05
2018-12-11T18:55:23.577Z,101883.67
2018-12-11T18:57:52.940Z,101879.73
2018-12-11T19:00:22.526Z,101886.80
2018-12-11T19:02:51.822Z,101879.89
2018-12-11T19:05:23.265Z,101879.91
2018-12-11T19:07:52.515Z,101878.64
2018-12-11T19:10:22.180Z,101883.02
2018-12-11T19:12:52.518Z,101877.37
2018-12-11T19:15:22.601Z,101875.62
2018-12-11T19:17:51.896Z,101875.62
2018-12-11T19:20:21.222Z,101875.62
2018-12-11T19:22:51.003Z,101880.00
2018-12-11T19:25:21.889Z,101880.42
2018-12-11T19:27:51.408Z,101882.62
2018-12-11T19:30:20.764Z,101886.94
2018-12-11T19:32:49.945Z,101887.84
2018-12-11T19:35:19.309Z,101884.30
2018-12-11T19:37:48.624Z,101884.71
2018-12-11T19:40:18.155Z,101886.02
2018-12-11T19:42:48.553Z,101885.09
2018-12-11T19:45:17.983Z,101878.61
2018-12-11T19:47:48.196Z,101889.55
2018-12-11T19:50:17.420Z,101883.84
2018-12-11T19:52:47.752Z,101883.88
2018-12-11T19:55:18.014Z,101884.73
2018-12-11T19:57:48.354Z,101885.13
2018-12-11T20:00:17.678Z,101884.71
2018-12-11T20:02:47.049Z,101882.59
2018-12-11T20:05:16.791Z,101881.26
2018-12-11T20:07:46.000Z,101881.23
2018-12-11T20:10:15.304Z,101881.58
2018-12-11T20:12:44.981Z,101883.38
2018-12-11T20:15:14.394Z,101880.39
2018-12-11T20:17:43.637Z,101880.42
2018-12-11T20:20:23.416Z,101877.94
2018-12-11T20:22:53.082Z,101879.29
2018-12-11T20:25:22.488Z,101885.88
2018-12-11T20:27:51.880Z,101883.73
2018-12-11T20:30:21.261Z,101887.23
2018-12-11T20:32:50.791Z,101881.17
2018-12-11T20:35:20.081Z,101886.44
2018-12-11T20:37:51.347Z,101882.53
2018-12-11T20:40:20.805Z,101880.81
2018-12-11T20:42:50.203Z,101891.28
2018-12-11T20:45:19.673Z,101890.02
2018-12-11T20:47:49.450Z,101885.20
2018-12-11T20:50:18.790Z,101888.22
2018-12-11T20:52:48.278Z,101887.81
2018-12-11T20:55:18.396Z,101883.89
2018-12-11T20:57:48.485Z,101879.94
2018-12-11T21:00:17.906Z,101881.20
2018-12-11T21:02:49.964Z,101882.52
2018-12-11T21:05:19.883Z,101880.38
2018-12-11T21:07:49.282Z,101883.48
2018-12-11T21:10:18.721Z,101880.86
2018-12-11T21:12:48.494Z,101884.82
2018-12-11T21:15:17.845Z,101894.47
2018-12-11T21:17:47.508Z,101898.84
2018-12-11T21:20:16.898Z,101895.78
2018-12-11T21:22:46.280Z,101898.38
2018-12-11T21:25:15.523Z,101894.05
2018-12-11T21:27:44.863Z,101895.37
2018-12-11T21:30:14.486Z,101893.14
2018-12-11T21:32:43.886Z,101893.16
2018-12-11T21:35:13.128Z,101894.91
2018-12-11T21:37:43.648Z,101897.92
2018-12-11T21:40:13.116Z,101903.17
2018-12-11T21:42:42.514Z,101902.68
2018-12-11T21:45:12.937Z,101900.53
2018-12-11T21:47:42.287Z,101900.97
2018-12-11T21:50:11.779Z,101894.89
2018-12-11T21:52:41.211Z,101897.95
2018-12-11T21:55:10.625Z,101894.91
2018-12-11T21:57:40.052Z,101898.78
2018-12-11T22:00:11.355Z,101891.85
2018-12-11T22:02:40.735Z,101886.17
2018-12-11T22:05:09.935Z,101889.25
2018-12-11T22:07:39.320Z,101892.77
2018-12-11T22:10:09.468Z,101896.62
2018-12-11T22:12:40.104Z,101893.99
2018-12-11T22:15:09.565Z,101898.37
2018-12-11T22:17:38.872Z,101897.94
2018-12-11T22:20:08.237Z,101897.02
2018-12-11T22:22:37.607Z,101895.28
2018-12-11T22:25:09.942Z,101887.87
2018-12-11T22:27:39.280Z,101897.02
2018-12-11T22:30:09.987Z,101891.33
2018-12-11T22:32:39.927Z,101899.70
2018-12-11T22:35:10.577Z,101894.03
2018-12-11T22:37:39.846Z,101899.71
2018-12-11T22:40:16.649Z,101903.63
2018-12-11T22:42:45.837Z,101901.91
2018-12-11T22:45:15.084Z,101903.26
2018-12-11T22:47:44.383Z,101900.62
2018-12-11T22:50:13.731Z,101900.66
2018-12-11T22:52:43.023Z,101903.26
2018-12-11T22:55:12.242Z,101898.92
2018-12-11T22:57:41.591Z,101903.71
2018-12-11T23:00:12.091Z,101899.82
2018-12-11T23:02:41.422Z,101899.84
2018-12-11T23:05:10.750Z,101908.55
2018-12-11T23:07:40.839Z,101909.00
2018-12-11T23:10:10.947Z,101908.55
2018-12-11T23:12:40.192Z,101906.84
2018-12-11T23:15:09.580Z,101912.52
2018-12-11T23:17:38.856Z,101917.34
2018-12-11T23:20:08.333Z,101918.65
2018-12-11T23:22:37.597Z,101915.61
2018-12-11T23:25:07.069Z,101917.38
2018-12-11T23:27:36.567Z,101913.00
2018-12-11T23:30:06.306Z,101916.08
2018-12-11T23:32:35.633Z,101920.85
2018-12-11T23:35:05.822Z,101918.67
2018-12-11T23:37:35.067Z,101909.52
2018-12-11T23:40:05.056Z,101915.61
2018-12-11T23:42:34.284Z,101916.44
2018-12-11T23:45:03.772Z,101912.13
2018-12-11T23:47:33.201Z,101911.67
2018-12-11T23:50:02.557Z,101917.75
2018-12-11T23:52:32.208Z,101910.36
2018-12-11T23:55:01.573Z,101907.73
2018-12-11T23:57:31.054Z,101908.20
